LKKO weather

Kolín Airport
Kolín, Central Bohemian Region, Czechia

Public forecast

Using degrees Celsius for public forecast. Weather courtesy of forecast.io.

Closest aviation weather report (METAR) to Kolín Airport

Closest report is Čáslav Air Base, 8.9 nm (16.4 km) ESE. Retrieved 2019/10/21 06:19 UTC (0 seconds ago):

LKCV 210619Z 28005KT 5000 BR NSC 08/08 Q1017 RMK WHT

Closest aviation forecast (TAF) to Kolín Airport

Closest forecast is Čáslav Air Base, 8.9 nm (16.4 km) ESE. Retrieved 2019/10/21 06:06 UTC (0 seconds ago):

TAF LKCV 210500Z 2106/2206 VRB02KT 9999 BKN040 TEMPO 2106/2108 3000 MIFG OVC003 PROB30 2106/2107 0800 FG VV002 BECMG 2109/2112 35006KT CAVOK BECMG 2200/2203 VRB02KT 2000 MIFG DZ OVC003